Time;durP1;ratioP1;P1;durP2;ratioP2;P2;SDS_P1;SDS_P2;PMS_P1;PMS_P2;Temp;Humidity;BMP_temperature;BMP_pressure;BME280_temperature;BME280_humidity;BME280_pressure;Samples;Min_cycle;Max_cycle;Signal;HPM_P1;HPM_P2
2021/03/30 00:00:38;;;;;;;28.77;13.87;;;;;;;15.62;57.35;102364.09;5117011;28;20516;-55
2021/03/30 00:03:05;;;;;;;33.20;15.17;;;;;;;15.57;57.34;102360.38;5114543;28;20845;-49
2021/03/30 00:05:32;;;;;;;33.33;15.10;;;;;;;15.44;57.43;102364.13;5117939;28;20463;-49
2021/03/30 00:07:59;;;;;;;42.53;15.07;;;;;;;15.67;57.10;102362.59;5108763;28;20481;-53
2021/03/30 00:10:33;;;;;;;43.70;16.30;;;;;;;15.63;57.05;102363.25;5115616;28;20452;-49
2021/03/30 00:13:00;;;;;;;41.80;16.47;;;;;;;15.61;57.28;102360.63;5116715;28;20480;-52
2021/03/30 00:15:27;;;;;;;29.33;14.80;;;;;;;15.47;57.55;102359.97;5117746;28;20510;-50
2021/03/30 00:17:54;;;;;;;38.67;15.17;;;;;;;15.63;57.34;102355.47;5116059;28;20494;-48
2021/03/30 00:20:21;;;;;;;38.67;16.93;;;;;;;15.79;56.79;102363.16;5118009;28;20483;-49
2021/03/30 00:22:47;;;;;;;33.70;15.60;;;;;;;15.62;56.92;102364.09;5116506;28;20473;-47
2021/03/30 00:25:14;;;;;;;36.73;14.83;;;;;;;15.87;56.47;102365.22;5117645;28;20457;-49
2021/03/30 00:27:41;;;;;;;41.20;15.50;;;;;;;15.70;56.50;102362.75;5116611;28;20493;-49
2021/03/30 00:30:10;;;;;;;33.97;16.33;;;;;;;15.82;56.29;102366.72;5117694;28;20914;-49
2021/03/30 00:32:38;;;;;;;29.80;14.50;;;;;;;15.60;56.72;102366.66;5116245;28;20472;-50
2021/03/30 00:35:07;;;;;;;34.93;13.67;;;;;;;15.39;56.34;102375.19;5117158;28;20913;-48
2021/03/30 00:37:34;;;;;;;29.70;10.50;;;;;;;15.27;56.59;102373.72;5116623;28;20537;-49
2021/03/30 00:40:01;;;;;;;25.57;11.83;;;;;;;15.35;56.27;102372.38;5117167;28;20954;-48
2021/03/30 00:42:28;;;;;;;30.17;13.03;;;;;;;15.87;54.58;102373.03;5116535;28;20902;-50
2021/03/30 00:44:57;;;;;;;37.33;12.53;;;;;;;15.70;54.58;102370.56;5117217;28;20460;-50
2021/03/30 00:47:23;;;;;;;26.63;10.90;;;;;;;15.35;55.10;102369.78;5116448;28;20472;-50
2021/03/30 00:49:52;;;;;;;24.87;11.70;;;;;;;15.59;54.42;102370.03;5117424;28;20480;-51
2021/03/30 00:52:19;;;;;;;24.03;11.13;;;;;;;15.71;54.09;102372.34;5116173;28;20457;-49
2021/03/30 00:54:46;;;;;;;29.10;10.70;;;;;;;15.39;54.99;102371.72;5113943;28;20813;-49
2021/03/30 00:57:15;;;;;;;25.90;10.53;;;;;;;15.19;55.28;102376.84;5115703;28;20547;-49
2021/03/30 00:59:42;;;;;;;25.93;10.17;;;;;;;15.39;54.67;102370.00;5117267;28;20473;-49
2021/03/30 01:02:09;;;;;;;25.80;10.43;;;;;;;15.45;54.33;102369.41;5116438;28;20463;-50
2021/03/30 01:04:35;;;;;;;23.20;9.37;;;;;;;15.48;53.41;102377.34;5116882;28;20552;-46
2021/03/30 01:07:03;;;;;;;28.07;9.90;;;;;;;15.68;53.18;102371.31;5116958;28;20468;-47
2021/03/30 01:09:45;;;;;;;19.80;9.43;;;;;;;15.55;53.06;102372.44;5116347;28;20469;-47
2021/03/30 01:12:20;;;;;;;32.50;9.63;;;;;;;15.68;52.43;102377.38;5114191;28;20452;-48
2021/03/30 01:14:53;;;;;;;30.80;10.20;;;;;;;15.63;52.05;102387.59;5113588;28;20468;-50
2021/03/30 01:17:28;;;;;;;17.50;8.33;;;;;;;15.28;52.71;102384.19;5109809;28;20456;-52
2021/03/30 01:20:06;;;;;;;18.93;8.70;;;;;;;15.80;51.48;102375.34;5115850;28;20475;-50
2021/03/30 01:23:18;;;;;;;19.63;8.80;;;;;;;15.60;51.92;102381.34;5113744;28;20479;-46
2021/03/30 01:25:47;;;;;;;19.23;8.43;;;;;;;15.53;51.38;102380.16;5031608;28;20527;-47
2021/03/30 01:28:22;;;;;;;19.93;8.27;;;;;;;15.56;51.47;102379.41;5102108;28;20472;-47
2021/03/30 01:30:51;;;;;;;19.57;9.20;;;;;;;15.48;51.42;102379.94;5114186;28;20463;-52
2021/03/30 01:33:20;;;;;;;21.83;8.83;;;;;;;15.42;51.25;102381.38;5115383;28;20480;-48
2021/03/30 01:35:47;;;;;;;29.27;8.33;;;;;;;15.58;51.00;102377.78;5113543;28;20459;-48
2021/03/30 01:38:14;;;;;;;35.67;9.53;;;;;;;15.69;50.79;102373.09;5115235;28;20476;-48
2021/03/30 01:40:42;;;;;;;19.43;8.90;;;;;;;15.47;51.15;102383.38;5116650;28;20460;-48
2021/03/30 01:43:09;;;;;;;19.23;8.70;;;;;;;15.70;50.93;102388.78;5114636;28;20840;-47
2021/03/30 01:45:36;;;;;;;24.47;8.70;;;;;;;15.28;51.76;102378.09;5115865;28;20464;-47
2021/03/30 01:48:04;;;;;;;25.10;8.30;;;;;;;15.34;51.76;102381.00;5114448;28;20491;-47
2021/03/30 01:50:32;;;;;;;21.87;8.40;;;;;;;15.48;51.82;102379.06;5116022;28;20461;-47
2021/03/30 01:53:00;;;;;;;19.93;8.73;;;;;;;15.02;52.89;102377.72;5115374;28;20940;-48
2021/03/30 01:55:28;;;;;;;23.30;8.80;;;;;;;15.17;52.50;102378.47;5114185;28;20458;-48
2021/03/30 01:57:58;;;;;;;24.90;9.03;;;;;;;15.34;51.98;102383.59;5114511;28;20913;-46
2021/03/30 02:00:27;;;;;;;20.13;9.00;;;;;;;15.43;51.97;102377.97;5116530;28;20816;-47
2021/03/30 02:02:54;;;;;;;24.20;8.23;;;;;;;15.48;51.29;102371.28;5114834;28;20497;-49
2021/03/30 02:05:22;;;;;;;19.90;9.20;;;;;;;15.38;51.98;102377.72;5115825;28;20499;-46
2021/03/30 02:07:52;;;;;;;24.80;9.20;;;;;;;15.35;51.51;102372.38;5112143;28;20548;-49
2021/03/30 02:10:28;;;;;;;25.90;8.87;;;;;;;14.97;52.59;102378.38;5116727;28;20565;-48
2021/03/30 02:12:56;;;;;;;29.17;8.70;;;;;;;15.46;51.22;102379.00;5115177;28;20492;-47
2021/03/30 02:15:22;;;;;;;21.30;9.37;;;;;;;15.21;51.65;102380.41;5116150;28;20519;-48
2021/03/30 02:17:54;;;;;;;21.43;8.40;;;;;;;15.41;51.51;102375.28;5115210;28;20482;-46
2021/03/30 02:20:25;;;;;;;21.20;8.97;;;;;;;15.17;51.78;102383.66;5115823;28;20481;-46
2021/03/30 02:22:55;;;;;;;21.03;9.60;;;;;;;15.04;52.08;102376.09;5114748;28;20490;-48
2021/03/30 02:25:22;;;;;;;21.70;8.60;;;;;;;15.01;52.00;102376.84;5116151;28;20453;-46
2021/03/30 02:27:50;;;;;;;27.93;9.03;;;;;;;14.96;52.21;102375.72;5115023;28;20617;-47
2021/03/30 02:30:19;;;;;;;21.73;8.70;;;;;;;14.99;51.89;102374.16;5116255;28;20473;-46
2021/03/30 02:32:48;;;;;;;15.50;7.43;;;;;;;15.03;52.11;102376.91;5114898;28;20461;-48
2021/03/30 02:35:15;;;;;;;20.67;8.60;;;;;;;14.97;52.11;102377.47;5115747;28;20770;-49
2021/03/30 02:37:44;;;;;;;19.07;8.90;;;;;;;14.86;52.20;102379.56;5114484;28;20572;-48
2021/03/30 02:40:14;;;;;;;24.30;8.60;;;;;;;15.08;51.63;102385.84;5115848;28;20506;-47
2021/03/30 02:42:42;;;;;;;22.30;8.67;;;;;;;14.95;51.83;102380.03;5114381;28;20486;-48
2021/03/30 02:45:10;;;;;;;20.70;7.30;;;;;;;15.02;51.73;102375.13;5115627;28;20904;-46
2021/03/30 02:47:37;;;;;;;22.83;8.57;;;;;;;15.01;51.61;102375.97;5114829;28;20480;-47
2021/03/30 02:50:06;;;;;;;29.37;8.17;;;;;;;14.63;52.06;102371.47;5115753;28;21009;-47
2021/03/30 02:52:33;;;;;;;19.87;8.50;;;;;;;14.56;52.86;102374.59;5114574;28;20469;-47
2021/03/30 02:55:02;;;;;;;19.43;8.10;;;;;;;14.44;52.60;102380.94;5115383;28;20468;-47
2021/03/30 02:57:29;;;;;;;20.97;8.23;;;;;;;14.36;52.95;102382.22;5113875;28;20555;-50
2021/03/30 02:59:56;;;;;;;22.10;8.50;;;;;;;14.60;52.51;102381.69;5115647;28;20499;-46
2021/03/30 03:02:23;;;;;;;22.23;8.87;;;;;;;14.29;52.75;102386.22;5110690;28;20453;-46
2021/03/30 03:04:50;;;;;;;20.63;7.83;;;;;;;14.43;52.80;102383.44;5095114;28;20537;-47
2021/03/30 03:07:17;;;;;;;21.13;6.67;;;;;;;14.37;52.65;102384.03;5098692;28;20805;-46
2021/03/30 03:09:44;;;;;;;19.30;8.30;;;;;;;14.30;52.24;102382.78;5115476;28;20477;-47
2021/03/30 03:12:12;;;;;;;22.80;9.20;;;;;;;14.37;52.47;102393.50;5104542;28;20497;-46
2021/03/30 03:14:40;;;;;;;25.03;8.13;;;;;;;14.40;51.94;102389.38;5094816;28;20481;-49
2021/03/30 03:17:08;;;;;;;25.43;7.87;;;;;;;14.39;52.02;102392.78;5094455;28;20469;-50
2021/03/30 03:19:36;;;;;;;13.93;7.17;;;;;;;14.27;52.50;102387.84;5095234;28;20907;-50
2021/03/30 03:22:03;;;;;;;21.70;8.33;;;;;;;14.47;51.43;102384.47;5098331;28;20465;-46
2021/03/30 03:24:30;;;;;;;23.70;8.10;;;;;;;14.14;51.92;102381.09;5114379;28;20487;-48
2021/03/30 03:26:57;;;;;;;25.07;7.87;;;;;;;14.29;51.62;102372.31;5115564;28;20489;-48
2021/03/30 03:29:24;;;;;;;23.87;7.43;;;;;;;14.34;51.29;102378.66;5114542;28;20483;-47
2021/03/30 03:31:51;;;;;;;19.73;7.70;;;;;;;14.48;51.15;102381.06;5115295;28;20460;-46
2021/03/30 03:34:18;;;;;;;27.37;8.80;;;;;;;14.16;51.54;102384.66;5116616;28;20819;-47
2021/03/30 03:36:48;;;;;;;17.20;7.43;;;;;;;14.31;51.24;102383.72;5119397;28;20452;-47
2021/03/30 03:39:16;;;;;;;21.87;7.90;;;;;;;14.40;51.01;102378.06;5118447;28;20925;-47
2021/03/30 03:41:44;;;;;;;18.77;8.47;;;;;;;14.37;50.69;102375.31;5119456;28;20550;-47
2021/03/30 03:44:12;;;;;;;25.30;8.13;;;;;;;14.27;50.82;102376.56;5115719;28;20790;-46
2021/03/30 03:46:41;;;;;;;22.47;7.80;;;;;;;14.07;51.36;102384.19;5098930;28;20568;-47
2021/03/30 03:49:08;;;;;;;20.63;7.43;;;;;;;14.26;50.96;102383.44;5098007;28;20470;-48
2021/03/30 03:51:37;;;;;;;26.87;7.90;;;;;;;14.10;51.12;102388.66;5106545;28;20464;-48
2021/03/30 03:54:07;;;;;;;18.60;7.17;;;;;;;14.35;50.36;102393.41;5117794;28;20970;-48
2021/03/30 03:56:35;;;;;;;16.50;7.33;;;;;;;14.05;51.02;102385.78;5119203;28;20773;-46
2021/03/30 03:59:07;;;;;;;19.83;8.20;;;;;;;14.30;50.70;102387.09;5118192;28;20918;-49
2021/03/30 04:01:38;;;;;;;21.73;7.67;;;;;;;14.29;50.74;102383.63;5119044;28;20509;-48
2021/03/30 04:04:09;;;;;;;24.07;7.53;;;;;;;14.20;50.65;102382.25;5117437;28;20481;-47
2021/03/30 04:06:40;;;;;;;21.90;7.27;;;;;;;14.09;50.73;102386.88;5119086;28;20483;-48
2021/03/30 04:09:10;;;;;;;18.63;7.13;;;;;;;14.25;50.33;102380.78;5117070;28;20559;-49
2021/03/30 04:11:37;;;;;;;18.20;7.27;;;;;;;14.17;50.51;102386.44;5118237;28;20488;-49
2021/03/30 04:14:03;;;;;;;17.03;6.87;;;;;;;14.01;50.65;102389.91;5116090;28;20483;-47
2021/03/30 04:16:30;;;;;;;20.10;7.47;;;;;;;14.16;50.40;102383.78;5118993;28;20451;-47
2021/03/30 04:18:57;;;;;;;22.63;7.90;;;;;;;14.15;50.00;102382.88;5117288;28;20472;-47
2021/03/30 04:21:29;;;;;;;17.20;8.10;;;;;;;13.90;50.92;102389.34;5118605;28;20558;-47
2021/03/30 04:23:57;;;;;;;17.57;7.50;;;;;;;13.86;50.71;102394.28;5117014;28;20483;-50
2021/03/30 04:26:24;;;;;;;16.53;7.40;;;;;;;13.80;50.67;102396.56;5118515;28;20488;-47
2021/03/30 04:28:51;;;;;;;19.97;6.70;;;;;;;13.47;51.62;102382.72;5116520;28;20504;-49
2021/03/30 04:31:17;;;;;;;17.20;6.90;;;;;;;13.87;50.92;102386.59;5118258;28;20463;-46
2021/03/30 04:33:44;;;;;;;24.57;7.27;;;;;;;13.83;50.96;102392.44;5117151;28;20477;-47
2021/03/30 04:36:11;;;;;;;18.13;7.60;;;;;;;13.98;50.74;102394.06;5118299;28;20452;-47
2021/03/30 04:38:38;;;;;;;22.13;7.70;;;;;;;13.68;51.04;102399.38;5117111;28;20480;-47
2021/03/30 04:41:07;;;;;;;23.57;7.40;;;;;;;13.79;50.64;102397.38;5118138;28;20905;-48
2021/03/30 04:43:33;;;;;;;19.00;7.13;;;;;;;14.06;49.85;102397.06;5116593;28;20495;-50
2021/03/30 04:46:00;;;;;;;17.30;7.50;;;;;;;13.80;50.17;102394.88;5117883;28;20452;-49
2021/03/30 04:48:27;;;;;;;16.83;7.60;;;;;;;13.69;50.71;102399.44;5115833;28;20562;-49
2021/03/30 04:50:54;;;;;;;21.40;7.80;;;;;;;13.84;50.24;102402.00;5118173;28;20562;-46
2021/03/30 04:53:25;;;;;;;16.97;7.30;;;;;;;13.89;49.89;102403.13;5116770;28;20547;-47
2021/03/30 04:55:53;;;;;;;17.00;6.70;;;;;;;13.98;49.70;102414.81;5117484;28;20456;-50
2021/03/30 04:58:20;;;;;;;18.57;7.03;;;;;;;13.76;50.21;102403.28;5116651;28;20780;-48
2021/03/30 05:00:47;;;;;;;22.17;8.47;;;;;;;14.05;49.55;102406.53;5117935;28;20461;-46
2021/03/30 05:03:13;;;;;;;17.97;6.70;;;;;;;13.99;49.74;102406.22;5116588;28;20490;-49
2021/03/30 05:05:40;;;;;;;20.63;7.80;;;;;;;13.94;49.36;102415.47;5117216;28;20486;-49
2021/03/30 05:08:07;;;;;;;21.23;7.27;;;;;;;13.85;49.69;102408.97;5116068;28;20622;-47
2021/03/30 05:10:34;;;;;;;20.93;7.53;;;;;;;13.84;49.58;102416.69;5117695;28;20571;-46
2021/03/30 05:13:01;;;;;;;17.93;7.57;;;;;;;13.76;50.00;102418.84;5116130;28;20479;-48
2021/03/30 05:15:28;;;;;;;17.00;7.67;;;;;;;13.84;49.45;102416.69;5117325;28;20491;-49
2021/03/30 05:17:55;;;;;;;22.63;7.33;;;;;;;13.83;49.61;102413.19;5116503;28;20485;-48
2021/03/30 05:20:21;;;;;;;17.70;7.73;;;;;;;13.70;49.94;102413.31;5117364;28;20482;-47
2021/03/30 05:22:48;;;;;;;26.47;7.93;;;;;;;13.75;50.00;102417.06;5115778;28;20546;-46
2021/03/30 05:25:15;;;;;;;19.20;7.30;;;;;;;13.63;49.78;102423.34;5116534;28;20886;-47
2021/03/30 05:27:41;;;;;;;15.57;7.90;;;;;;;13.63;50.08;102418.16;5116654;28;20472;-50
2021/03/30 05:30:11;;;;;;;20.90;7.60;;;;;;;13.67;50.02;102420.91;5117362;28;20476;-48
2021/03/30 05:32:38;;;;;;;15.57;6.77;;;;;;;13.66;50.12;102421.72;5115965;28;20479;-47
2021/03/30 05:35:06;;;;;;;19.73;7.10;;;;;;;13.51;50.51;102417.47;5116875;28;20462;-49
2021/03/30 05:37:39;;;;;;;18.83;7.47;;;;;;;13.79;50.17;102421.59;5115869;28;20536;-47
2021/03/30 05:40:07;;;;;;;19.40;8.07;;;;;;;13.73;50.43;102426.44;5116358;28;20494;-48
2021/03/30 05:42:34;;;;;;;19.50;7.87;;;;;;;13.81;50.30;102427.78;5115596;28;20548;-48
2021/03/30 05:45:01;;;;;;;18.23;7.20;;;;;;;13.49;51.20;102422.56;5116697;28;20459;-46
2021/03/30 05:47:29;;;;;;;23.97;7.90;;;;;;;13.67;50.75;102428.69;5115428;28;20482;-49
2021/03/30 05:49:56;;;;;;;21.30;8.00;;;;;;;13.52;51.09;102420.97;5114839;28;20786;-52
2021/03/30 05:52:29;;;;;;;21.30;9.60;;;;;;;13.68;51.11;102425.31;5114475;28;20513;-46
2021/03/30 05:54:57;;;;;;;25.63;7.63;;;;;;;13.76;50.72;102424.91;5116114;28;20460;-48
2021/03/30 05:57:26;;;;;;;24.90;8.60;;;;;;;13.89;50.93;102429.09;5114848;28;20459;-46
2021/03/30 05:59:55;;;;;;;19.20;8.93;;;;;;;13.82;50.77;102429.56;5116563;28;20491;-46
2021/03/30 06:02:23;;;;;;;16.67;9.43;;;;;;;14.00;50.52;102428.78;5115122;28;20459;-47
2021/03/30 06:04:51;;;;;;;29.37;9.40;;;;;;;14.03;50.60;102439.31;5116229;28;20452;-47
2021/03/30 06:07:18;;;;;;;27.47;9.90;;;;;;;13.99;50.57;102437.34;5115464;28;20484;-48
2021/03/30 06:09:45;;;;;;;25.20;9.30;;;;;;;14.04;50.79;102442.00;5116442;28;20487;-48
2021/03/30 06:12:15;;;;;;;24.13;9.90;;;;;;;14.04;50.84;102446.28;5115252;28;20458;-47
2021/03/30 06:14:43;;;;;;;19.87;8.93;;;;;;;13.89;51.03;102446.34;5116092;28;20487;-48
2021/03/30 06:17:11;;;;;;;24.37;8.70;;;;;;;13.72;51.39;102446.31;5115145;28;20526;-48
2021/03/30 06:19:57;;;;;;;23.57;10.83;;;;;;;14.22;51.16;102445.50;5115665;28;20520;-47
2021/03/30 06:22:26;;;;;;;25.67;9.90;;;;;;;14.37;50.26;102450.63;5114155;28;20533;-47
2021/03/30 06:24:53;;;;;;;24.20;10.20;;;;;;;14.29;50.71;102453.72;5115947;28;20482;-47
2021/03/30 06:27:28;;;;;;;23.20;9.60;;;;;;;14.30;50.45;102459.78;5114964;28;20462;-46
2021/03/30 06:29:57;;;;;;;18.67;9.00;;;;;;;14.23;50.61;102458.56;5116219;28;20476;-48
2021/03/30 06:32:25;;;;;;;19.40;8.70;;;;;;;14.24;50.56;102454.25;5114662;28;20457;-49
2021/03/30 06:34:57;;;;;;;20.73;9.30;;;;;;;14.42;50.29;102460.44;5115537;28;20453;-48
2021/03/30 06:37:30;;;;;;;26.97;9.63;;;;;;;14.37;50.72;102461.91;5115024;28;20514;-50
2021/03/30 06:39:59;;;;;;;22.33;10.10;;;;;;;14.63;50.16;102465.00;5115636;28;20500;-46
2021/03/30 06:42:32;;;;;;;24.47;9.40;;;;;;;14.77;49.69;102460.53;5115054;28;20851;-50
2021/03/30 06:44:58;;;;;;;23.67;8.77;;;;;;;14.68;49.57;102463.50;5115707;28;20543;-49
2021/03/30 06:47:25;;;;;;;15.53;7.97;;;;;;;14.28;50.81;102469.19;5104143;28;20539;-47
2021/03/30 06:49:58;;;;;;;20.30;9.80;;;;;;;14.72;50.02;102465.47;5115996;28;20484;-52
2021/03/30 06:52:28;;;;;;;24.53;9.27;;;;;;;14.76;49.84;102474.34;5113346;28;20465;-49
2021/03/30 06:54:57;;;;;;;26.70;7.00;;;;;;;14.55;50.22;102474.97;5110056;28;20497;-49
2021/03/30 06:57:39;;;;;;;19.97;9.33;;;;;;;14.75;50.02;102469.94;5111314;28;20468;-50
2021/03/30 07:00:11;;;;;;;17.87;9.87;;;;;;;14.80;50.11;102472.78;5098661;28;20556;-49
2021/03/30 07:02:46;;;;;;;22.03;10.30;;;;;;;15.30;49.52;102475.28;5096500;28;20777;-51
2021/03/30 07:05:31;;;;;;;25.37;10.47;;;;;;;15.16;49.98;102475.47;5114965;28;20932;-50
2021/03/30 07:07:59;;;;;;;26.87;11.07;;;;;;;15.49;49.26;102488.38;5116915;28;20476;-51
2021/03/30 07:10:32;;;;;;;19.00;9.80;;;;;;;15.66;49.22;102483.09;5119427;28;20453;-48
2021/03/30 07:12:59;;;;;;;22.97;11.07;;;;;;;15.77;48.58;102481.91;5118524;28;20480;-50
2021/03/30 07:15:26;;;;;;;20.40;8.90;;;;;;;15.41;49.77;102487.09;5119332;28;20517;-53
2021/03/30 07:18:06;;;;;;;27.03;10.60;;;;;;;15.61;49.60;102489.78;5118410;28;20503;-49
2021/03/30 07:20:38;;;;;;;20.23;10.00;;;;;;;15.68;49.65;102499.66;5119854;28;20882;-50
2021/03/30 07:23:08;;;;;;;25.67;10.67;;;;;;;15.80;49.39;102494.19;5110660;28;20481;-49
2021/03/30 07:25:38;;;;;;;18.67;9.30;;;;;;;15.62;50.11;102499.38;5113178;28;20543;-48
2021/03/30 07:28:08;;;;;;;24.90;9.50;;;;;;;15.64;50.63;102503.84;5118030;28;20483;-49
2021/03/30 07:30:37;;;;;;;30.33;10.47;;;;;;;15.92;49.94;102504.31;5119498;28;20459;-47
2021/03/30 07:33:13;;;;;;;22.10;9.03;;;;;;;15.88;49.98;102500.63;5118040;28;20482;-48
2021/03/30 07:35:40;;;;;;;24.90;11.43;;;;;;;16.22;49.48;102505.66;5119244;28;20487;-48
2021/03/30 07:38:14;;;;;;;24.07;11.07;;;;;;;16.31;49.19;102503.50;5118347;28;20906;-48
2021/03/30 07:40:41;;;;;;;46.93;23.23;;;;;;;16.54;49.12;102501.03;5119270;28;20481;-50
2021/03/30 07:43:09;;;;;;;23.93;10.20;;;;;;;16.62;48.86;102511.78;5118531;28;20512;-47
2021/03/30 07:45:38;;;;;;;20.77;9.57;;;;;;;16.22;49.80;102509.16;5118878;28;20457;-50
2021/03/30 07:48:06;;;;;;;30.50;15.13;;;;;;;16.45;50.21;102509.31;5114198;28;20478;-48
2021/03/30 07:50:50;;;;;;;24.47;10.20;;;;;;;16.34;50.20;102511.44;5098850;28;20466;-50
2021/03/30 07:53:43;;;;;;;28.97;12.07;;;;;;;16.63;50.53;102508.38;5095227;28;20979;-49
2021/03/30 07:56:12;;;;;;;64.67;27.80;;;;;;;16.37;50.98;102514.19;5091762;28;20512;-46
2021/03/30 07:58:43;;;;;;;28.70;14.30;;;;;;;16.62;50.24;102509.19;5113531;28;20844;-51
2021/03/30 08:01:11;;;;;;;38.47;17.60;;;;;;;16.82;50.26;102503.13;5117986;28;20469;-48
2021/03/30 08:03:39;;;;;;;22.77;10.97;;;;;;;16.73;50.06;102514.03;5116340;28;20495;-47
2021/03/30 08:06:17;;;;;;;33.83;16.37;;;;;;;16.91;49.95;102520.03;5116307;28;20895;-48
2021/03/30 08:09:00;;;;;;;27.57;12.00;;;;;;;16.81;50.68;102511.78;5116150;28;20564;-49
2021/03/30 08:12:00;;;;;;;48.43;21.87;;;;;;;17.40;49.34;102518.63;5117419;28;20460;-50
2021/03/30 08:14:38;;;;;;;21.90;11.27;;;;;;;17.64;48.22;102523.09;5116163;28;20850;-49
2021/03/30 08:17:19;;;;;;;21.97;10.80;;;;;;;17.72;48.68;102525.97;5109612;28;20894;-49
2021/03/30 08:20:02;;;;;;;24.33;11.77;;;;;;;17.80;49.24;102529.81;5116254;28;20475;-48
2021/03/30 08:22:41;;;;;;;24.77;10.57;;;;;;;17.58;49.17;102539.38;5116515;28;20495;-52
2021/03/30 08:25:24;;;;;;;27.57;12.10;;;;;;;17.66;49.26;102537.97;5114028;28;20453;-48
2021/03/30 08:27:51;;;;;;;25.20;11.97;;;;;;;17.92;49.06;102530.31;5116198;28;20978;-48
2021/03/30 08:30:55;;;;;;;18.70;9.20;;;;;;;17.91;49.00;102533.75;5117245;28;20572;-51
2021/03/30 08:33:32;;;;;;;26.77;11.40;;;;;;;18.02;49.40;102534.16;5116079;28;20854;-46
2021/03/30 08:36:16;;;;;;;27.37;9.87;;;;;;;17.77;49.66;102534.91;5109275;28;20459;-48
2021/03/30 08:38:44;;;;;;;28.90;12.40;;;;;;;18.17;48.85;102536.50;5115949;28;20864;-54
2021/03/30 08:41:11;;;;;;;20.57;8.77;;;;;;;18.06;49.34;102523.00;5117833;28;20469;-50
2021/03/30 08:43:37;;;;;;;18.20;8.53;;;;;;;18.02;49.51;102536.78;5116623;28;20927;-49
2021/03/30 08:46:11;;;;;;;23.67;12.43;;;;;;;18.03;49.49;102529.81;5117579;28;20461;-49
2021/03/30 08:48:40;;;;;;;26.30;11.80;;;;;;;18.18;49.60;102537.38;5115999;28;20484;-47
2021/03/30 08:51:09;;;;;;;30.27;12.00;;;;;;;18.46;48.97;102539.31;5117747;28;20492;-49
2021/03/30 08:53:35;;;;;;;24.53;9.27;;;;;;;18.72;47.90;102547.22;5116034;28;20473;-49
2021/03/30 08:56:09;;;;;;;28.27;10.80;;;;;;;18.71;47.89;102548.06;5117281;28;20466;-51
2021/03/30 08:58:39;;;;;;;33.63;13.20;;;;;;;18.89;47.87;102544.34;5116402;28;20588;-49
2021/03/30 09:01:07;;;;;;;19.60;9.03;;;;;;;18.60;48.86;102547.69;5117663;28;20733;-51
2021/03/30 09:03:34;;;;;;;26.67;11.13;;;;;;;19.16;48.67;102548.78;5116443;28;20566;-51
2021/03/30 09:06:01;;;;;;;15.07;8.83;;;;;;;18.95;48.28;102555.03;5117246;28;20505;-50
2021/03/30 09:08:36;;;;;;;21.20;9.03;;;;;;;19.34;47.76;102553.78;5115538;28;20508;-49
2021/03/30 09:11:31;;;;;;;20.03;9.93;;;;;;;19.25;47.21;102543.88;5117474;28;20460;-49
2021/03/30 09:14:03;;;;;;;20.10;10.80;;;;;;;19.28;47.27;102549.22;5044648;28;20486;-48
2021/03/30 09:16:30;;;;;;;14.77;8.43;;;;;;;19.51;47.51;102541.25;5117098;28;20455;-50
2021/03/30 09:19:22;;;;;;;21.23;10.20;;;;;;;19.44;47.74;102544.50;5115743;28;20933;-50
2021/03/30 09:21:50;;;;;;;18.77;8.77;;;;;;;19.33;47.45;102551.09;5117359;28;20492;-49
2021/03/30 09:24:27;;;;;;;14.73;8.70;;;;;;;19.68;47.13;102547.03;5115421;28;20486;-48
2021/03/30 09:26:54;;;;;;;25.67;7.30;;;;;;;18.96;48.56;102545.44;5116767;28;20448;-46
2021/03/30 09:29:21;;;;;;;16.70;7.57;;;;;;;19.17;47.96;102540.09;5115120;28;20496;-47
2021/03/30 09:31:48;;;;;;;16.60;7.53;;;;;;;19.29;48.05;102545.75;5116795;28;20458;-46
2021/03/30 09:34:16;;;;;;;25.23;9.90;;;;;;;20.03;46.25;102543.78;5115379;28;20476;-46
2021/03/30 09:36:44;;;;;;;18.90;9.03;;;;;;;19.94;46.76;102546.09;5116726;28;20455;-50
2021/03/30 09:39:17;;;;;;;16.63;9.50;;;;;;;20.30;45.80;102545.44;5114982;28;20482;-51
2021/03/30 09:41:45;;;;;;;16.73;8.33;;;;;;;20.22;46.29;102546.97;5117003;28;20470;-47
2021/03/30 09:44:12;;;;;;;17.43;7.20;;;;;;;19.79;46.52;102536.88;5114890;28;20488;-48
2021/03/30 09:46:42;;;;;;;24.63;8.70;;;;;;;20.28;45.82;102536.66;5116352;28;20453;-50
2021/03/30 09:49:10;;;;;;;15.17;7.93;;;;;;;20.41;46.12;102531.78;5114769;28;20532;-49
2021/03/30 09:51:38;;;;;;;16.13;6.83;;;;;;;20.01;46.11;102529.75;5116233;28;20459;-47
2021/03/30 09:54:19;;;;;;;21.33;8.03;;;;;;;20.30;45.77;102531.47;5114925;28;20483;-47
2021/03/30 09:56:46;;;;;;;11.90;5.07;;;;;;;19.94;46.25;102526.00;5113587;28;20467;-51
2021/03/30 09:59:17;;;;;;;18.37;7.50;;;;;;;19.98;46.37;102531.41;5115196;28;20472;-47
2021/03/30 10:01:44;;;;;;;16.63;8.47;;;;;;;19.99;46.32;102523.56;5116837;28;20768;-48
2021/03/30 10:04:11;;;;;;;16.90;7.77;;;;;;;20.62;44.98;102528.88;5114718;28;20560;-51
2021/03/30 10:06:38;;;;;;;17.10;7.83;;;;;;;20.73;44.86;102521.31;5116638;28;20460;-52
2021/03/30 10:09:07;;;;;;;16.53;9.13;;;;;;;20.91;44.88;102519.22;5114799;28;20483;-49
2021/03/30 10:11:34;;;;;;;20.73;7.70;;;;;;;20.76;45.51;102518.75;5116494;28;20464;-49
2021/03/30 10:14:25;;;;;;;13.80;7.33;;;;;;;20.72;45.28;102516.91;5114615;28;20591;-48
2021/03/30 10:16:53;;;;;;;14.87;7.40;;;;;;;20.79;45.43;102524.09;5116427;28;20464;-49
2021/03/30 10:19:21;;;;;;;14.17;7.67;;;;;;;21.04;44.34;102525.66;5114919;28;20466;-49
2021/03/30 10:21:54;;;;;;;16.93;6.03;;;;;;;20.31;46.22;102530.63;5116500;28;20460;-48
2021/03/30 10:24:22;;;;;;;18.00;8.30;;;;;;;20.40;46.15;102532.63;5114290;28;20516;-47
2021/03/30 10:27:03;;;;;;;13.93;7.33;;;;;;;20.10;46.85;102527.41;5115907;28;20449;-50
2021/03/30 10:29:36;;;;;;;13.60;5.97;;;;;;;20.39;46.80;102534.34;5114415;28;20555;-49
2021/03/30 10:32:09;;;;;;;15.60;7.57;;;;;;;20.94;45.48;102522.75;5115480;28;20456;-47
2021/03/30 10:34:36;;;;;;;15.63;8.20;;;;;;;21.70;43.89;102519.44;5115611;28;20496;-47
2021/03/30 10:37:05;;;;;;;14.37;7.10;;;;;;;21.09;44.90;102530.16;5116090;28;20453;-50
2021/03/30 10:39:33;;;;;;;16.27;7.57;;;;;;;21.21;45.05;102524.34;5115244;28;20461;-48
2021/03/30 10:42:09;;;;;;;18.83;8.37;;;;;;;21.70;43.65;102528.16;5115341;28;20448;-46
2021/03/30 10:44:38;;;;;;;17.13;9.37;;;;;;;21.67;43.56;102514.94;5112849;28;20474;-52
2021/03/30 10:47:19;;;;;;;19.37;8.30;;;;;;;21.76;43.70;102511.69;5115658;28;20453;-49
2021/03/30 10:49:48;;;;;;;14.80;7.00;;;;;;;22.05;42.85;102508.81;5115536;28;20499;-50
2021/03/30 10:52:20;;;;;;;13.83;5.33;;;;;;;21.11;44.49;102517.94;5114746;28;20454;-50
2021/03/30 10:54:49;;;;;;;12.13;6.90;;;;;;;21.32;44.45;102504.47;5115793;28;20489;-47
2021/03/30 10:57:16;;;;;;;13.50;6.17;;;;;;;21.67;43.54;102509.69;5114593;28;20552;-51
2021/03/30 10:59:44;;;;;;;12.67;6.50;;;;;;;22.12;42.37;102505.47;5115075;28;20574;-47
2021/03/30 11:02:11;;;;;;;13.73;7.70;;;;;;;22.06;42.77;102514.97;5114631;28;20454;-50
2021/03/30 11:04:38;;;;;;;11.73;6.60;;;;;;;22.10;41.94;102511.56;5114946;28;20478;-48
2021/03/30 11:07:05;;;;;;;16.23;6.50;;;;;;;22.10;41.78;102508.94;5115535;28;20541;-52
2021/03/30 11:09:33;;;;;;;13.77;6.77;;;;;;;22.12;41.97;102504.56;5115034;28;20472;-50
2021/03/30 11:12:00;;;;;;;13.40;8.10;;;;;;;22.43;41.67;102502.59;5115596;28;20976;-52
2021/03/30 11:14:27;;;;;;;13.10;6.63;;;;;;;22.16;41.16;102498.53;5113679;28;20475;-51
2021/03/30 11:16:54;;;;;;;15.83;6.50;;;;;;;22.16;40.71;102503.81;5115572;28;20548;-48
2021/03/30 11:19:22;;;;;;;13.40;6.30;;;;;;;22.05;41.15;102493.03;5114038;28;20474;-53
2021/03/30 11:21:48;;;;;;;13.80;7.00;;;;;;;22.04;41.75;102500.91;5115747;28;20915;-53
2021/03/30 11:24:18;;;;;;;11.80;6.70;;;;;;;22.34;41.19;102507.63;5113523;28;20778;-49
2021/03/30 11:26:47;;;;;;;12.50;6.80;;;;;;;22.50;41.23;102504.47;5115644;28;20459;-52